Villa Nueva, Texas
Current Conditions -  °F | °C
As of 1:53 AM on Monday 22 Dec 2014 (Local Time) from KBRO Reporting Station
Haze Haze  
Wind Chill: 63°   Ceiling: 2200
Heat Index: 63°   Visibility: 5mi
Dew Point: 61°   Wind: 6mph
Humidity: 93%   Direction: 190°S
Pressure: 29.84"   Gusts: NA
Location:  26.0002°N, 97.5729°W
Report Text: KBRO 220753Z AUTO 19005KT 5SM BR FEW015 OVC022 17/16 A2984 RMK AO2 SLP103 T01720161
Loading
Personal Weather Stations






























Interactive Weather Map New forecast layout! Learn more

10-Day Weather Forecast

Advertisements
Track Severe Weather on mobile